sensor_id;sensor_type;location;lat;lon;timestamp;temperature;humidity
11818;DHT22;5966;52.402;5.322;2022-11-20T00:00:56;-1.40;99.90
11818;DHT22;5966;52.402;5.322;2022-11-20T00:03:23;-1.30;99.90
11818;DHT22;5966;52.402;5.322;2022-11-20T00:05:51;-1.20;99.90
11818;DHT22;5966;52.402;5.322;2022-11-20T00:08:19;-1.20;99.90
11818;DHT22;5966;52.402;5.322;2022-11-20T00:10:47;-1.10;99.90
11818;DHT22;5966;52.402;5.322;2022-11-20T00:13:15;-1.20;99.90
11818;DHT22;5966;52.402;5.322;2022-11-20T00:15:43;-1.20;99.90
11818;DHT22;5966;52.402;5.322;2022-11-20T00:18:12;-1.10;99.90
11818;DHT22;5966;52.402;5.322;2022-11-20T00:20:40;-1.00;99.90
11818;DHT22;5966;52.402;5.322;2022-11-20T00:23:08;-1.00;99.90
11818;DHT22;5966;52.402;5.322;2022-11-20T00:25:36;-1.10;99.90
11818;DHT22;5966;52.402;5.322;2022-11-20T00:28:04;-1.20;99.90
11818;DHT22;5966;52.402;5.322;2022-11-20T00:30:32;-1.30;99.90
11818;DHT22;5966;52.402;5.322;2022-11-20T00:33:00;-1.30;99.90
11818;DHT22;5966;52.402;5.322;2022-11-20T00:35:29;-1.30;99.90
11818;DHT22;5966;52.402;5.322;2022-11-20T00:37:57;-1.20;99.90
11818;DHT22;5966;52.402;5.322;2022-11-20T00:40:25;-1.30;99.90
11818;DHT22;5966;52.402;5.322;2022-11-20T00:42:53;-1.30;99.90
11818;DHT22;5966;52.402;5.322;2022-11-20T00:45:21;-1.40;99.90
11818;DHT22;5966;52.402;5.322;2022-11-20T00:47:49;-1.40;99.90
11818;DHT22;5966;52.402;5.322;2022-11-20T00:50:16;-1.50;99.90
11818;DHT22;5966;52.402;5.322;2022-11-20T00:52:46;-1.50;99.90
11818;DHT22;5966;52.402;5.322;2022-11-20T00:55:14;-1.50;99.90
11818;DHT22;5966;52.402;5.322;2022-11-20T00:57:42;-1.50;99.90
11818;DHT22;5966;52.402;5.322;2022-11-20T01:00:10;-1.50;99.90
11818;DHT22;5966;52.402;5.322;2022-11-20T01:02:38;-1.50;99.90
11818;DHT22;5966;52.402;5.322;2022-11-20T01:05:06;-1.50;99.90
11818;DHT22;5966;52.402;5.322;2022-11-20T01:07:34;-1.60;99.90
11818;DHT22;5966;52.402;5.322;2022-11-20T01:10:04;-1.60;99.90
11818;DHT22;5966;52.402;5.322;2022-11-20T01:12:32;-1.70;99.90
11818;DHT22;5966;52.402;5.322;2022-11-20T01:15:00;-1.70;99.90
11818;DHT22;5966;52.402;5.322;2022-11-20T01:17:28;-1.70;99.90
11818;DHT22;5966;52.402;5.322;2022-11-20T01:19:56;-1.70;99.90
11818;DHT22;5966;52.402;5.322;2022-11-20T01:22:24;-1.70;99.90
11818;DHT22;5966;52.402;5.322;2022-11-20T01:24:52;-1.60;99.90
11818;DHT22;5966;52.402;5.322;2022-11-20T01:27:21;-1.60;99.90
11818;DHT22;5966;52.402;5.322;2022-11-20T01:29:49;-1.60;99.90
11818;DHT22;5966;52.402;5.322;2022-11-20T01:32:17;-1.60;99.90
11818;DHT22;5966;52.402;5.322;2022-11-20T01:34:44;-1.60;99.90
11818;DHT22;5966;52.402;5.322;2022-11-20T01:37:12;-1.60;99.90
11818;DHT22;5966;52.402;5.322;2022-11-20T01:39:40;-1.70;99.90
11818;DHT22;5966;52.402;5.322;2022-11-20T01:42:08;-1.70;99.90
11818;DHT22;5966;52.402;5.322;2022-11-20T01:44:57;-1.80;99.90
11818;DHT22;5966;52.402;5.322;2022-11-20T01:47:31;-1.80;99.90
11818;DHT22;5966;52.402;5.322;2022-11-20T01:50:05;-1.80;99.90
11818;DHT22;5966;52.402;5.322;2022-11-20T01:52:36;-1.90;99.90
11818;DHT22;5966;52.402;5.322;2022-11-20T01:55:08;-1.90;99.90
11818;DHT22;5966;52.402;5.322;2022-11-20T01:57:38;-1.90;99.90
11818;DHT22;5966;52.402;5.322;2022-11-20T02:00:10;-1.90;99.90
11818;DHT22;5966;52.402;5.322;2022-11-20T02:02:42;-1.90;99.90
11818;DHT22;5966;52.402;5.322;2022-11-20T02:05:16;-1.90;99.90
11818;DHT22;5966;52.402;5.322;2022-11-20T02:07:46;-1.80;99.90
11818;DHT22;5966;52.402;5.322;2022-11-20T02:10:15;-1.70;99.90
11818;DHT22;5966;52.402;5.322;2022-11-20T02:12:43;-1.70;99.90
11818;DHT22;5966;52.402;5.322;2022-11-20T02:15:30;-1.80;99.90
11818;DHT22;5966;52.402;5.322;2022-11-20T02:17:59;-1.80;99.90
11818;DHT22;5966;52.402;5.322;2022-11-20T02:20:28;-1.80;99.90
11818;DHT22;5966;52.402;5.322;2022-11-20T02:22:59;-1.70;99.90
11818;DHT22;5966;52.402;5.322;2022-11-20T02:25:30;-1.70;99.90
11818;DHT22;5966;52.402;5.322;2022-11-20T02:27:58;-1.80;99.90
11818;DHT22;5966;52.402;5.322;2022-11-20T02:30:26;-1.80;99.90
11818;DHT22;5966;52.402;5.322;2022-11-20T02:32:54;-1.80;99.90
11818;DHT22;5966;52.402;5.322;2022-11-20T02:35:43;-1.80;99.90
11818;DHT22;5966;52.402;5.322;2022-11-20T02:38:12;-1.80;99.90
11818;DHT22;5966;52.402;5.322;2022-11-20T02:40:42;-1.90;99.90
11818;DHT22;5966;52.402;5.322;2022-11-20T02:43:09;-1.90;99.90
11818;DHT22;5966;52.402;5.322;2022-11-20T02:45:38;-1.90;99.90
11818;DHT22;5966;52.402;5.322;2022-11-20T02:48:06;-1.90;99.90
11818;DHT22;5966;52.402;5.322;2022-11-20T02:50:37;-1.90;99.90
11818;DHT22;5966;52.402;5.322;2022-11-20T02:53:06;-2.00;99.90
11818;DHT22;5966;52.402;5.322;2022-11-20T02:55:34;-2.00;99.90
11818;DHT22;5966;52.402;5.322;2022-11-20T02:58:04;-2.10;99.90
11818;DHT22;5966;52.402;5.322;2022-11-20T03:00:32;-2.10;99.90
11818;DHT22;5966;52.402;5.322;2022-11-20T03:03:00;-2.10;99.90
11818;DHT22;5966;52.402;5.322;2022-11-20T03:05:28;-2.10;99.90
11818;DHT22;5966;52.402;5.322;2022-11-20T03:07:56;-2.10;99.90
11818;DHT22;5966;52.402;5.322;2022-11-20T03:10:24;-2.10;99.90
11818;DHT22;5966;52.402;5.322;2022-11-20T03:12:53;-2.10;99.90
11818;DHT22;5966;52.402;5.322;2022-11-20T03:15:23;-2.00;99.90
11818;DHT22;5966;52.402;5.322;2022-11-20T03:17:53;-2.00;99.90
11818;DHT22;5966;52.402;5.322;2022-11-20T03:20:22;-2.00;99.90
11818;DHT22;5966;52.402;5.322;2022-11-20T03:22:50;-2.00;99.90
11818;DHT22;5966;52.402;5.322;2022-11-20T03:25:18;-2.00;99.90
11818;DHT22;5966;52.402;5.322;2022-11-20T03:27:46;-1.90;99.90
11818;DHT22;5966;52.402;5.322;2022-11-20T03:30:14;-2.00;99.90
11818;DHT22;5966;52.402;5.322;2022-11-20T03:32:43;-2.10;99.90
11818;DHT22;5966;52.402;5.322;2022-11-20T03:35:11;-2.10;99.90
11818;DHT22;5966;52.402;5.322;2022-11-20T03:37:39;-2.10;99.90
11818;DHT22;5966;52.402;5.322;2022-11-20T03:40:08;-2.10;99.90
11818;DHT22;5966;52.402;5.322;2022-11-20T03:42:36;-2.10;99.90
11818;DHT22;5966;52.402;5.322;2022-11-20T03:45:13;-2.00;99.90
11818;DHT22;5966;52.402;5.322;2022-11-20T03:47:42;-2.00;99.90
11818;DHT22;5966;52.402;5.322;2022-11-20T03:50:12;-2.00;99.90
11818;DHT22;5966;52.402;5.322;2022-11-20T03:52:41;-1.90;99.90
11818;DHT22;5966;52.402;5.322;2022-11-20T03:55:09;-1.90;99.90
11818;DHT22;5966;52.402;5.322;2022-11-20T03:57:37;-1.90;99.90
11818;DHT22;5966;52.402;5.322;2022-11-20T04:00:06;-1.90;99.90
11818;DHT22;5966;52.402;5.322;2022-11-20T04:02:34;-1.90;99.90
11818;DHT22;5966;52.402;5.322;2022-11-20T04:05:02;-1.80;99.90
11818;DHT22;5966;52.402;5.322;2022-11-20T04:07:33;-1.80;99.90
11818;DHT22;5966;52.402;5.322;2022-11-20T04:10:01;-1.70;99.90
11818;DHT22;5966;52.402;5.322;2022-11-20T04:12:32;-1.80;99.90
11818;DHT22;5966;52.402;5.322;2022-11-20T04:15:00;-1.80;99.90
11818;DHT22;5966;52.402;5.322;2022-11-20T04:17:28;-1.80;99.90
11818;DHT22;5966;52.402;5.322;2022-11-20T04:19:56;-1.90;99.90
11818;DHT22;5966;52.402;5.322;2022-11-20T04:22:24;-1.90;99.90
11818;DHT22;5966;52.402;5.322;2022-11-20T04:24:53;-1.90;99.90
11818;DHT22;5966;52.402;5.322;2022-11-20T04:27:21;-2.00;99.90
11818;DHT22;5966;52.402;5.322;2022-11-20T04:29:48;-2.00;99.90
11818;DHT22;5966;52.402;5.322;2022-11-20T04:32:16;-2.00;99.90
11818;DHT22;5966;52.402;5.322;2022-11-20T04:34:44;-2.00;99.90
11818;DHT22;5966;52.402;5.322;2022-11-20T04:37:12;-2.00;99.90
11818;DHT22;5966;52.402;5.322;2022-11-20T04:39:40;-2.00;99.90
11818;DHT22;5966;52.402;5.322;2022-11-20T04:42:10;-2.00;99.90
11818;DHT22;5966;52.402;5.322;2022-11-20T04:44:57;-2.10;99.90
11818;DHT22;5966;52.402;5.322;2022-11-20T04:47:25;-2.10;99.90
11818;DHT22;5966;52.402;5.322;2022-11-20T04:49:53;-2.10;99.90
11818;DHT22;5966;52.402;5.322;2022-11-20T04:52:21;-2.10;99.90
11818;DHT22;5966;52.402;5.322;2022-11-20T04:54:49;-2.10;99.90
11818;DHT22;5966;52.402;5.322;2022-11-20T04:57:20;-2.10;99.90
11818;DHT22;5966;52.402;5.322;2022-11-20T04:59:48;-2.10;99.90
11818;DHT22;5966;52.402;5.322;2022-11-20T05:02:16;-2.10;99.90
11818;DHT22;5966;52.402;5.322;2022-11-20T05:04:44;-2.20;99.90
11818;DHT22;5966;52.402;5.322;2022-11-20T05:07:12;-2.20;99.90
11818;DHT22;5966;52.402;5.322;2022-11-20T05:09:40;-2.20;99.90
11818;DHT22;5966;52.402;5.322;2022-11-20T05:12:08;-2.20;99.90
11818;DHT22;5966;52.402;5.322;2022-11-20T05:14:37;-2.20;99.90
11818;DHT22;5966;52.402;5.322;2022-11-20T05:17:05;-2.20;99.90
11818;DHT22;5966;52.402;5.322;2022-11-20T05:19:33;-2.30;99.90
11818;DHT22;5966;52.402;5.322;2022-11-20T05:22:01;-2.30;99.90
11818;DHT22;5966;52.402;5.322;2022-11-20T05:24:29;-2.30;99.90
11818;DHT22;5966;52.402;5.322;2022-11-20T05:26:57;-2.30;99.90
11818;DHT22;5966;52.402;5.322;2022-11-20T05:29:24;-2.20;99.90
11818;DHT22;5966;52.402;5.322;2022-11-20T05:31:54;-2.10;99.90
11818;DHT22;5966;52.402;5.322;2022-11-20T05:34:22;-2.20;99.90
11818;DHT22;5966;52.402;5.322;2022-11-20T05:36:50;-2.20;99.90
11818;DHT22;5966;52.402;5.322;2022-11-20T05:39:17;-2.20;99.90
11818;DHT22;5966;52.402;5.322;2022-11-20T05:41:46;-2.30;99.90
11818;DHT22;5966;52.402;5.322;2022-11-20T05:44:34;-2.30;99.90
11818;DHT22;5966;52.402;5.322;2022-11-20T05:47:03;-2.30;99.90
11818;DHT22;5966;52.402;5.322;2022-11-20T05:49:31;-2.30;99.90
11818;DHT22;5966;52.402;5.322;2022-11-20T05:51:59;-2.30;99.90
11818;DHT22;5966;52.402;5.322;2022-11-20T05:54:27;-2.30;99.90
11818;DHT22;5966;52.402;5.322;2022-11-20T05:56:55;-2.20;99.90
11818;DHT22;5966;52.402;5.322;2022-11-20T05:59:23;-2.20;99.90
11818;DHT22;5966;52.402;5.322;2022-11-20T06:01:50;-2.10;99.90
11818;DHT22;5966;52.402;5.322;2022-11-20T06:04:20;-2.10;99.90
11818;DHT22;5966;52.402;5.322;2022-11-20T06:06:48;-2.10;99.90
11818;DHT22;5966;52.402;5.322;2022-11-20T06:09:16;-2.10;99.90
11818;DHT22;5966;52.402;5.322;2022-11-20T06:11:44;-2.20;99.90
11818;DHT22;5966;52.402;5.322;2022-11-20T06:14:12;-2.30;99.90
11818;DHT22;5966;52.402;5.322;2022-11-20T06:16:40;-2.30;99.90
11818;DHT22;5966;52.402;5.322;2022-11-20T06:19:08;-2.30;99.90
11818;DHT22;5966;52.402;5.322;2022-11-20T06:21:37;-2.30;99.90
11818;DHT22;5966;52.402;5.322;2022-11-20T06:24:05;-2.30;99.90
11818;DHT22;5966;52.402;5.322;2022-11-20T06:26:33;-2.40;99.90
11818;DHT22;5966;52.402;5.322;2022-11-20T06:29:01;-2.40;99.90
11818;DHT22;5966;52.402;5.322;2022-11-20T06:31:29;-2.50;99.90
11818;DHT22;5966;52.402;5.322;2022-11-20T06:33:59;-2.50;99.90
11818;DHT22;5966;52.402;5.322;2022-11-20T06:36:27;-2.50;99.90
11818;DHT22;5966;52.402;5.322;2022-11-20T06:38:56;-2.50;99.90
11818;DHT22;5966;52.402;5.322;2022-11-20T06:41:24;-2.50;99.90
11818;DHT22;5966;52.402;5.322;2022-11-20T06:43:52;-2.50;99.90
11818;DHT22;5966;52.402;5.322;2022-11-20T06:46:20;-2.50;99.90
11818;DHT22;5966;52.402;5.322;2022-11-20T06:48:49;-2.50;99.90
11818;DHT22;5966;52.402;5.322;2022-11-20T06:51:18;-2.40;99.90
11818;DHT22;5966;52.402;5.322;2022-11-20T06:53:46;-2.40;99.90
11818;DHT22;5966;52.402;5.322;2022-11-20T06:56:15;-2.40;99.90
11818;DHT22;5966;52.402;5.322;2022-11-20T06:58:43;-2.30;99.90
11818;DHT22;5966;52.402;5.322;2022-11-20T07:01:12;-2.30;99.90
11818;DHT22;5966;52.402;5.322;2022-11-20T07:03:41;-2.30;99.90
11818;DHT22;5966;52.402;5.322;2022-11-20T07:06:09;-2.30;99.90
11818;DHT22;5966;52.402;5.322;2022-11-20T07:08:37;-2.20;99.90
11818;DHT22;5966;52.402;5.322;2022-11-20T07:11:06;-2.20;99.90
11818;DHT22;5966;52.402;5.322;2022-11-20T07:13:35;-2.20;99.90
11818;DHT22;5966;52.402;5.322;2022-11-20T07:16:07;-2.20;99.90
11818;DHT22;5966;52.402;5.322;2022-11-20T07:18:35;-2.20;99.90
11818;DHT22;5966;52.402;5.322;2022-11-20T07:21:05;-2.30;99.90
11818;DHT22;5966;52.402;5.322;2022-11-20T07:23:33;-2.30;99.90
11818;DHT22;5966;52.402;5.322;2022-11-20T07:26:03;-2.20;99.90
11818;DHT22;5966;52.402;5.322;2022-11-20T07:28:31;-2.20;99.90
11818;DHT22;5966;52.402;5.322;2022-11-20T07:31:01;-2.20;99.90
11818;DHT22;5966;52.402;5.322;2022-11-20T07:33:29;-2.20;99.90
11818;DHT22;5966;52.402;5.322;2022-11-20T07:35:58;-2.10;99.90
11818;DHT22;5966;52.402;5.322;2022-11-20T07:38:26;-2.10;99.90
11818;DHT22;5966;52.402;5.322;2022-11-20T07:40:54;-2.00;99.90
11818;DHT22;5966;52.402;5.322;2022-11-20T07:43:24;-1.90;99.90
11818;DHT22;5966;52.402;5.322;2022-11-20T07:45:54;-1.80;99.90
11818;DHT22;5966;52.402;5.322;2022-11-20T07:48:24;-1.70;99.90
11818;DHT22;5966;52.402;5.322;2022-11-20T07:50:53;-1.70;99.90
11818;DHT22;5966;52.402;5.322;2022-11-20T07:53:22;-1.60;99.90
11818;DHT22;5966;52.402;5.322;2022-11-20T07:55:50;-1.60;99.90
11818;DHT22;5966;52.402;5.322;2022-11-20T07:58:19;-1.50;99.90
11818;DHT22;5966;52.402;5.322;2022-11-20T08:00:47;-1.50;99.90
11818;DHT22;5966;52.402;5.322;2022-11-20T08:03:15;-1.50;99.90
11818;DHT22;5966;52.402;5.322;2022-11-20T08:05:51;-1.50;99.90
11818;DHT22;5966;52.402;5.322;2022-11-20T08:08:19;-1.50;99.90
11818;DHT22;5966;52.402;5.322;2022-11-20T08:10:47;-1.40;99.90
11818;DHT22;5966;52.402;5.322;2022-11-20T08:13:15;-1.40;99.90
11818;DHT22;5966;52.402;5.322;2022-11-20T08:16:15;-1.40;99.90
11818;DHT22;5966;52.402;5.322;2022-11-20T08:18:43;-1.40;99.90
11818;DHT22;5966;52.402;5.322;2022-11-20T08:21:12;-1.30;99.90
11818;DHT22;5966;52.402;5.322;2022-11-20T08:23:40;-1.30;99.90
11818;DHT22;5966;52.402;5.322;2022-11-20T08:26:08;-1.30;99.90
11818;DHT22;5966;52.402;5.322;2022-11-20T08:28:36;-1.20;99.90
11818;DHT22;5966;52.402;5.322;2022-11-20T08:31:04;-1.20;99.90
11818;DHT22;5966;52.402;5.322;2022-11-20T08:33:32;-1.20;99.90
11818;DHT22;5966;52.402;5.322;2022-11-20T08:36:00;-1.20;99.90
11818;DHT22;5966;52.402;5.322;2022-11-20T08:38:30;-1.20;99.90
11818;DHT22;5966;52.402;5.322;2022-11-20T08:40:59;-1.10;99.90
11818;DHT22;5966;52.402;5.322;2022-11-20T08:43:44;-1.10;99.90
11818;DHT22;5966;52.402;5.322;2022-11-20T08:46:12;-1.10;99.90
11818;DHT22;5966;52.402;5.322;2022-11-20T08:48:40;-1.10;99.90
11818;DHT22;5966;52.402;5.322;2022-11-20T08:51:09;-1.10;99.90
11818;DHT22;5966;52.402;5.322;2022-11-20T08:53:38;-1.10;99.90
11818;DHT22;5966;52.402;5.322;2022-11-20T08:56:07;-1.00;99.90
11818;DHT22;5966;52.402;5.322;2022-11-20T08:58:36;-1.00;99.90
11818;DHT22;5966;52.402;5.322;2022-11-20T09:01:24;-1.00;99.90
11818;DHT22;5966;52.402;5.322;2022-11-20T09:03:52;-0.90;99.90
11818;DHT22;5966;52.402;5.322;2022-11-20T09:06:22;-0.90;99.90
11818;DHT22;5966;52.402;5.322;2022-11-20T09:08:53;-0.90;99.90
11818;DHT22;5966;52.402;5.322;2022-11-20T09:11:21;-0.80;99.90
11818;DHT22;5966;52.402;5.322;2022-11-20T09:13:49;-0.80;99.90
11818;DHT22;5966;52.402;5.322;2022-11-20T09:16:17;-0.80;99.90
11818;DHT22;5966;52.402;5.322;2022-11-20T09:18:45;-0.70;99.90
11818;DHT22;5966;52.402;5.322;2022-11-20T09:21:27;-0.70;99.90
11818;DHT22;5966;52.402;5.322;2022-11-20T09:23:56;-0.60;99.90
11818;DHT22;5966;52.402;5.322;2022-11-20T09:26:24;-0.60;99.90
11818;DHT22;5966;52.402;5.322;2022-11-20T09:28:52;-0.60;99.90
11818;DHT22;5966;52.402;5.322;2022-11-20T09:31:24;-0.60;99.90
11818;DHT22;5966;52.402;5.322;2022-11-20T09:33:53;-0.60;99.90
11818;DHT22;5966;52.402;5.322;2022-11-20T09:36:21;-0.60;99.90
11818;DHT22;5966;52.402;5.322;2022-11-20T09:38:49;-0.60;99.90
11818;DHT22;5966;52.402;5.322;2022-11-20T09:41:34;-0.50;99.90
11818;DHT22;5966;52.402;5.322;2022-11-20T09:44:12;-0.50;99.90
11818;DHT22;5966;52.402;5.322;2022-11-20T09:46:48;-0.40;99.90
11818;DHT22;5966;52.402;5.322;2022-11-20T09:49:26;-0.40;99.90
11818;DHT22;5966;52.402;5.322;2022-11-20T09:52:01;-0.30;99.90
11818;DHT22;5966;52.402;5.322;2022-11-20T09:54:36;-0.30;99.90
11818;DHT22;5966;52.402;5.322;2022-11-20T09:57:11;-0.20;99.90
11818;DHT22;5966;52.402;5.322;2022-11-20T09:59:41;-0.20;99.90
11818;DHT22;5966;52.402;5.322;2022-11-20T10:02:17;-0.20;99.90
11818;DHT22;5966;52.402;5.322;2022-11-20T10:04:51;-0.10;99.90
11818;DHT22;5966;52.402;5.322;2022-11-20T10:07:24;-0.10;99.90
11818;DHT22;5966;52.402;5.322;2022-11-20T10:09:59;-0.10;99.90
11818;DHT22;5966;52.402;5.322;2022-11-20T10:12:35;-0.10;99.90
11818;DHT22;5966;52.402;5.322;2022-11-20T10:15:12;-0.10;99.90
11818;DHT22;5966;52.402;5.322;2022-11-20T10:18:08;0.00;99.90
11818;DHT22;5966;52.402;5.322;2022-11-20T10:20:43;0.00;99.90
11818;DHT22;5966;52.402;5.322;2022-11-20T10:23:28;0.10;99.90
11818;DHT22;5966;52.402;5.322;2022-11-20T10:26:02;0.10;99.90
11818;DHT22;5966;52.402;5.322;2022-11-20T10:28:45;0.10;99.90
11818;DHT22;5966;52.402;5.322;2022-11-20T10:31:29;0.10;99.90
11818;DHT22;5966;52.402;5.322;2022-11-20T10:34:02;0.20;99.90
11818;DHT22;5966;52.402;5.322;2022-11-20T10:36:48;0.20;99.90
11818;DHT22;5966;52.402;5.322;2022-11-20T10:39:22;0.20;99.90
11818;DHT22;5966;52.402;5.322;2022-11-20T10:41:52;0.30;99.90
11818;DHT22;5966;52.402;5.322;2022-11-20T10:44:26;0.20;99.90
11818;DHT22;5966;52.402;5.322;2022-11-20T10:47:14;0.30;99.90
11818;DHT22;5966;52.402;5.322;2022-11-20T10:49:43;0.30;99.90
11818;DHT22;5966;52.402;5.322;2022-11-20T10:52:20;0.40;99.90
11818;DHT22;5966;52.402;5.322;2022-11-20T10:54:58;0.40;99.90
11818;DHT22;5966;52.402;5.322;2022-11-20T10:57:50;0.40;99.90
11818;DHT22;5966;52.402;5.322;2022-11-20T11:00:21;0.40;99.90
11818;DHT22;5966;52.402;5.322;2022-11-20T11:02:50;0.50;99.90
11818;DHT22;5966;52.402;5.322;2022-11-20T11:05:34;0.50;99.90
11818;DHT22;5966;52.402;5.322;2022-11-20T11:08:05;0.60;99.90
11818;DHT22;5966;52.402;5.322;2022-11-20T11:10:41;0.60;99.90
11818;DHT22;5966;52.402;5.322;2022-11-20T11:13:20;0.60;99.90
11818;DHT22;5966;52.402;5.322;2022-11-20T11:15:49;0.60;99.90
11818;DHT22;5966;52.402;5.322;2022-11-20T11:18:25;0.60;99.90
11818;DHT22;5966;52.402;5.322;2022-11-20T11:20:54;0.70;99.90
11818;DHT22;5966;52.402;5.322;2022-11-20T11:23:30;0.70;99.90
11818;DHT22;5966;52.402;5.322;2022-11-20T11:26:00;0.80;99.90
11818;DHT22;5966;52.402;5.322;2022-11-20T11:28:29;0.80;99.90
11818;DHT22;5966;52.402;5.322;2022-11-20T11:30:58;0.80;99.90
11818;DHT22;5966;52.402;5.322;2022-11-20T11:33:28;0.90;99.90
11818;DHT22;5966;52.402;5.322;2022-11-20T11:35:58;0.90;99.90
11818;DHT22;5966;52.402;5.322;2022-11-20T11:38:30;0.90;99.90
11818;DHT22;5966;52.402;5.322;2022-11-20T11:40:59;1.00;99.90
11818;DHT22;5966;52.402;5.322;2022-11-20T11:43:30;1.00;99.90
11818;DHT22;5966;52.402;5.322;2022-11-20T11:46:27;1.00;99.90
11818;DHT22;5966;52.402;5.322;2022-11-20T11:48:57;1.00;99.90
11818;DHT22;5966;52.402;5.322;2022-11-20T11:51:31;1.10;99.90
11818;DHT22;5966;52.402;5.322;2022-11-20T11:54:01;1.10;99.90
11818;DHT22;5966;52.402;5.322;2022-11-20T11:56:33;1.10;99.90
11818;DHT22;5966;52.402;5.322;2022-11-20T11:59:06;1.10;99.90
11818;DHT22;5966;52.402;5.322;2022-11-20T12:01:44;1.10;99.90
11818;DHT22;5966;52.402;5.322;2022-11-20T12:04:20;1.10;99.90
11818;DHT22;5966;52.402;5.322;2022-11-20T12:06:51;1.10;99.90
11818;DHT22;5966;52.402;5.322;2022-11-20T12:09:24;1.10;99.90
11818;DHT22;5966;52.402;5.322;2022-11-20T12:11:58;1.10;99.90
11818;DHT22;5966;52.402;5.322;2022-11-20T12:14:34;1.20;99.90
11818;DHT22;5966;52.402;5.322;2022-11-20T12:17:07;1.20;99.90
11818;DHT22;5966;52.402;5.322;2022-11-20T12:19:36;1.20;99.90
11818;DHT22;5966;52.402;5.322;2022-11-20T12:22:13;1.30;99.90
11818;DHT22;5966;52.402;5.322;2022-11-20T12:24:51;1.30;99.90
11818;DHT22;5966;52.402;5.322;2022-11-20T12:27:38;1.40;99.90
11818;DHT22;5966;52.402;5.322;2022-11-20T12:30:09;1.40;99.90
11818;DHT22;5966;52.402;5.322;2022-11-20T12:33:18;1.50;99.90
11818;DHT22;5966;52.402;5.322;2022-11-20T12:36:03;1.50;99.90
11818;DHT22;5966;52.402;5.322;2022-11-20T12:38:51;1.50;99.90
11818;DHT22;5966;52.402;5.322;2022-11-20T12:41:28;1.60;99.90
11818;DHT22;5966;52.402;5.322;2022-11-20T12:44:26;1.60;99.90
11818;DHT22;5966;52.402;5.322;2022-11-20T12:47:19;1.70;99.90
11818;DHT22;5966;52.402;5.322;2022-11-20T12:49:58;1.70;99.90
11818;DHT22;5966;52.402;5.322;2022-11-20T12:52:44;1.70;99.90
11818;DHT22;5966;52.402;5.322;2022-11-20T12:55:23;1.70;99.90
11818;DHT22;5966;52.402;5.322;2022-11-20T12:57:57;1.70;99.90
11818;DHT22;5966;52.402;5.322;2022-11-20T13:00:26;1.80;99.90
11818;DHT22;5966;52.402;5.322;2022-11-20T13:06:14;1.80;99.90
11818;DHT22;5966;52.402;5.322;2022-11-20T13:08:47;1.80;99.90
11818;DHT22;5966;52.402;5.322;2022-11-20T13:11:20;1.80;99.90
11818;DHT22;5966;52.402;5.322;2022-11-20T13:14:04;1.80;99.90
11818;DHT22;5966;52.402;5.322;2022-11-20T13:16:41;1.80;99.90
11818;DHT22;5966;52.402;5.322;2022-11-20T13:19:14;1.80;99.90
11818;DHT22;5966;52.402;5.322;2022-11-20T13:21:46;1.80;99.90
11818;DHT22;5966;52.402;5.322;2022-11-20T13:24:27;1.80;99.90
11818;DHT22;5966;52.402;5.322;2022-11-20T13:27:01;1.80;99.90
11818;DHT22;5966;52.402;5.322;2022-11-20T13:29:29;1.90;99.90
11818;DHT22;5966;52.402;5.322;2022-11-20T13:32:03;1.90;99.90
11818;DHT22;5966;52.402;5.322;2022-11-20T13:34:34;1.90;99.90
11818;DHT22;5966;52.402;5.322;2022-11-20T13:37:05;1.90;99.90
11818;DHT22;5966;52.402;5.322;2022-11-20T13:39:34;2.00;99.90
11818;DHT22;5966;52.402;5.322;2022-11-20T13:42:20;2.00;99.90
11818;DHT22;5966;52.402;5.322;2022-11-20T13:44:54;2.00;99.90
11818;DHT22;5966;52.402;5.322;2022-11-20T13:47:23;2.10;99.90
11818;DHT22;5966;52.402;5.322;2022-11-20T13:49:53;2.10;99.90
11818;DHT22;5966;52.402;5.322;2022-11-20T13:52:42;2.10;99.90
11818;DHT22;5966;52.402;5.322;2022-11-20T13:55:16;2.10;99.90
11818;DHT22;5966;52.402;5.322;2022-11-20T14:00:46;2.20;99.90
11818;DHT22;5966;52.402;5.322;2022-11-20T14:03:18;2.20;99.90
11818;DHT22;5966;52.402;5.322;2022-11-20T14:06:12;2.20;99.90
11818;DHT22;5966;52.402;5.322;2022-11-20T14:08:46;2.20;99.90
11818;DHT22;5966;52.402;5.322;2022-11-20T14:11:16;2.20;99.90
11818;DHT22;5966;52.402;5.322;2022-11-20T14:13:59;2.30;99.90
11818;DHT22;5966;52.402;5.322;2022-11-20T14:16:29;2.30;99.90
11818;DHT22;5966;52.402;5.322;2022-11-20T14:19:08;2.30;99.90
11818;DHT22;5966;52.402;5.322;2022-11-20T14:21:44;2.30;99.90
11818;DHT22;5966;52.402;5.322;2022-11-20T14:24:18;2.30;99.90
11818;DHT22;5966;52.402;5.322;2022-11-20T14:26:47;2.20;99.90
11818;DHT22;5966;52.402;5.322;2022-11-20T14:29:17;2.20;99.90
11818;DHT22;5966;52.402;5.322;2022-11-20T14:31:46;2.20;99.90
11818;DHT22;5966;52.402;5.322;2022-11-20T14:34:22;2.20;99.90
11818;DHT22;5966;52.402;5.322;2022-11-20T14:36:53;2.20;99.90
11818;DHT22;5966;52.402;5.322;2022-11-20T14:39:28;2.20;99.90
11818;DHT22;5966;52.402;5.322;2022-11-20T14:41:58;2.20;99.90
11818;DHT22;5966;52.402;5.322;2022-11-20T14:44:27;2.30;99.90
11818;DHT22;5966;52.402;5.322;2022-11-20T14:46:57;2.30;99.90
11818;DHT22;5966;52.402;5.322;2022-11-20T14:49:26;2.30;99.90
11818;DHT22;5966;52.402;5.322;2022-11-20T14:51:59;2.30;99.90
11818;DHT22;5966;52.402;5.322;2022-11-20T14:54:28;2.30;99.90
11818;DHT22;5966;52.402;5.322;2022-11-20T14:56:59;2.30;99.90
11818;DHT22;5966;52.402;5.322;2022-11-20T14:59:29;2.30;99.90
11818;DHT22;5966;52.402;5.322;2022-11-20T15:02:00;2.30;99.90
11818;DHT22;5966;52.402;5.322;2022-11-20T15:04:29;2.30;99.90
11818;DHT22;5966;52.402;5.322;2022-11-20T15:06:58;2.30;99.90
11818;DHT22;5966;52.402;5.322;2022-11-20T15:09:28;2.30;99.90
11818;DHT22;5966;52.402;5.322;2022-11-20T15:11:58;2.30;99.90
11818;DHT22;5966;52.402;5.322;2022-11-20T15:14:27;2.30;99.90
11818;DHT22;5966;52.402;5.322;2022-11-20T15:16:56;2.30;99.90
11818;DHT22;5966;52.402;5.322;2022-11-20T15:19:25;2.30;99.90
11818;DHT22;5966;52.402;5.322;2022-11-20T15:21:54;2.30;99.90
11818;DHT22;5966;52.402;5.322;2022-11-20T15:24:22;2.30;99.90
11818;DHT22;5966;52.402;5.322;2022-11-20T15:26:51;2.30;99.90
11818;DHT22;5966;52.402;5.322;2022-11-20T15:29:20;2.30;99.90
11818;DHT22;5966;52.402;5.322;2022-11-20T15:31:50;2.30;99.90
11818;DHT22;5966;52.402;5.322;2022-11-20T15:34:19;2.30;99.90
11818;DHT22;5966;52.402;5.322;2022-11-20T15:36:47;2.30;99.90
11818;DHT22;5966;52.402;5.322;2022-11-20T15:39:15;2.30;99.90
11818;DHT22;5966;52.402;5.322;2022-11-20T15:41:44;2.30;99.90
11818;DHT22;5966;52.402;5.322;2022-11-20T15:44:13;2.30;99.90
11818;DHT22;5966;52.402;5.322;2022-11-20T15:46:42;2.30;99.90
11818;DHT22;5966;52.402;5.322;2022-11-20T15:49:15;2.30;99.90
11818;DHT22;5966;52.402;5.322;2022-11-20T15:51:44;2.20;99.90
11818;DHT22;5966;52.402;5.322;2022-11-20T15:54:15;2.20;99.90
11818;DHT22;5966;52.402;5.322;2022-11-20T15:56:44;2.20;99.90
11818;DHT22;5966;52.402;5.322;2022-11-20T15:59:13;2.20;99.90
11818;DHT22;5966;52.402;5.322;2022-11-20T16:01:42;2.20;99.90
11818;DHT22;5966;52.402;5.322;2022-11-20T16:04:10;2.20;99.90
11818;DHT22;5966;52.402;5.322;2022-11-20T16:06:39;2.20;99.90
11818;DHT22;5966;52.402;5.322;2022-11-20T16:09:07;2.20;99.90
11818;DHT22;5966;52.402;5.322;2022-11-20T16:11:36;2.20;99.90
11818;DHT22;5966;52.402;5.322;2022-11-20T16:14:04;2.20;99.90
11818;DHT22;5966;52.402;5.322;2022-11-20T16:16:51;2.20;99.90
11818;DHT22;5966;52.402;5.322;2022-11-20T16:19:19;2.20;99.90
11818;DHT22;5966;52.402;5.322;2022-11-20T16:21:47;2.20;99.90
11818;DHT22;5966;52.402;5.322;2022-11-20T16:24:15;2.20;99.90